sensor_id;sensor_type;location;lat;lon;timestamp;P1;durP1;ratioP1;P2;durP2;ratioP2
54263;SDS011;40178;53.042;6.406;2023-02-25T00:02:13;20.08;;;3.55;;
54263;SDS011;40178;53.042;6.406;2023-02-25T00:04:39;21.85;;;3.88;;
54263;SDS011;40178;53.042;6.406;2023-02-25T00:07:08;14.63;;;3.00;;
54263;SDS011;40178;53.042;6.406;2023-02-25T00:09:34;19.42;;;6.05;;
54263;SDS011;40178;53.042;6.406;2023-02-25T00:11:59;15.63;;;3.45;;
54263;SDS011;40178;53.042;6.406;2023-02-25T00:14:25;12.18;;;2.25;;
54263;SDS011;40178;53.042;6.406;2023-02-25T00:16:51;16.45;;;2.95;;
54263;SDS011;40178;53.042;6.406;2023-02-25T00:19:21;11.77;;;2.80;;
54263;SDS011;40178;53.042;6.406;2023-02-25T00:21:48;19.08;;;2.42;;
54263;SDS011;40178;53.042;6.406;2023-02-25T00:24:13;11.20;;;2.47;;
54263;SDS011;40178;53.042;6.406;2023-02-25T00:26:39;15.52;;;2.63;;
54263;SDS011;40178;53.042;6.406;2023-02-25T00:29:05;16.55;;;3.20;;
54263;SDS011;40178;53.042;6.406;2023-02-25T00:31:31;16.55;;;2.65;;
54263;SDS011;40178;53.042;6.406;2023-02-25T00:33:57;12.57;;;2.47;;
54263;SDS011;40178;53.042;6.406;2023-02-25T00:36:23;13.40;;;2.35;;
54263;SDS011;40178;53.042;6.406;2023-02-25T00:38:51;10.77;;;2.28;;
54263;SDS011;40178;53.042;6.406;2023-02-25T00:41:19;24.08;;;4.18;;
54263;SDS011;40178;53.042;6.406;2023-02-25T00:43:54;17.27;;;3.38;;
54263;SDS011;40178;53.042;6.406;2023-02-25T00:46:22;14.38;;;2.90;;
54263;SDS011;40178;53.042;6.406;2023-02-25T00:48:48;15.13;;;2.35;;
54263;SDS011;40178;53.042;6.406;2023-02-25T00:51:16;14.00;;;2.30;;
54263;SDS011;40178;53.042;6.406;2023-02-25T00:53:44;15.98;;;3.10;;
54263;SDS011;40178;53.042;6.406;2023-02-25T00:56:10;14.95;;;2.60;;
54263;SDS011;40178;53.042;6.406;2023-02-25T00:58:44;19.33;;;3.13;;
54263;SDS011;40178;53.042;6.406;2023-02-25T01:01:19;18.25;;;2.80;;
54263;SDS011;40178;53.042;6.406;2023-02-25T01:03:50;13.25;;;2.72;;
54263;SDS011;40178;53.042;6.406;2023-02-25T01:06:17;12.07;;;2.30;;
54263;SDS011;40178;53.042;6.406;2023-02-25T01:08:43;19.80;;;3.80;;
54263;SDS011;40178;53.042;6.406;2023-02-25T01:11:12;10.25;;;2.90;;
54263;SDS011;40178;53.042;6.406;2023-02-25T01:13:41;9.45;;;2.55;;
54263;SDS011;40178;53.042;6.406;2023-02-25T01:16:14;16.27;;;2.53;;
54263;SDS011;40178;53.042;6.406;2023-02-25T01:18:42;13.98;;;2.08;;
54263;SDS011;40178;53.042;6.406;2023-02-25T01:21:13;11.32;;;3.05;;
54263;SDS011;40178;53.042;6.406;2023-02-25T01:23:42;18.20;;;2.42;;
54263;SDS011;40178;53.042;6.406;2023-02-25T01:26:09;18.75;;;3.08;;
54263;SDS011;40178;53.042;6.406;2023-02-25T01:28:34;14.02;;;2.60;;
54263;SDS011;40178;53.042;6.406;2023-02-25T01:31:00;16.88;;;2.90;;
54263;SDS011;40178;53.042;6.406;2023-02-25T01:33:25;10.57;;;2.42;;
54263;SDS011;40178;53.042;6.406;2023-02-25T01:35:51;14.32;;;2.97;;
54263;SDS011;40178;53.042;6.406;2023-02-25T01:38:17;19.35;;;3.80;;
54263;SDS011;40178;53.042;6.406;2023-02-25T01:40:42;16.55;;;3.78;;
54263;SDS011;40178;53.042;6.406;2023-02-25T01:43:12;16.42;;;3.20;;
54263;SDS011;40178;53.042;6.406;2023-02-25T01:45:41;11.93;;;2.35;;
54263;SDS011;40178;53.042;6.406;2023-02-25T01:48:10;20.02;;;2.60;;
54263;SDS011;40178;53.042;6.406;2023-02-25T01:50:41;16.45;;;2.65;;
54263;SDS011;40178;53.042;6.406;2023-02-25T01:53:10;17.02;;;2.42;;
54263;SDS011;40178;53.042;6.406;2023-02-25T01:55:37;14.40;;;2.90;;
54263;SDS011;40178;53.042;6.406;2023-02-25T01:58:04;17.83;;;3.67;;
54263;SDS011;40178;53.042;6.406;2023-02-25T02:00:30;10.65;;;2.75;;
54263;SDS011;40178;53.042;6.406;2023-02-25T02:02:57;19.23;;;3.25;;
54263;SDS011;40178;53.042;6.406;2023-02-25T02:05:24;16.67;;;2.28;;
54263;SDS011;40178;53.042;6.406;2023-02-25T02:08:12;18.65;;;2.95;;
54263;SDS011;40178;53.042;6.406;2023-02-25T02:10:38;13.32;;;2.70;;
54263;SDS011;40178;53.042;6.406;2023-02-25T02:13:03;25.00;;;3.10;;
54263;SDS011;40178;53.042;6.406;2023-02-25T02:15:30;14.32;;;3.05;;
54263;SDS011;40178;53.042;6.406;2023-02-25T02:17:59;22.02;;;3.13;;
54263;SDS011;40178;53.042;6.406;2023-02-25T02:20:28;14.63;;;2.38;;
54263;SDS011;40178;53.042;6.406;2023-02-25T02:34:23;17.90;;;3.22;;
54263;SDS011;40178;53.042;6.406;2023-02-25T02:39:37;10.20;;;2.45;;
54263;SDS011;40178;53.042;6.406;2023-02-25T02:42:15;13.30;;;2.15;;
54263;SDS011;40178;53.042;6.406;2023-02-25T02:47:42;11.98;;;2.70;;
54263;SDS011;40178;53.042;6.406;2023-02-25T02:50:12;13.00;;;1.90;;
54263;SDS011;40178;53.042;6.406;2023-02-25T02:52:46;12.25;;;2.28;;
54263;SDS011;40178;53.042;6.406;2023-02-25T02:55:17;15.63;;;2.08;;
54263;SDS011;40178;53.042;6.406;2023-02-25T02:57:46;10.50;;;2.05;;
54263;SDS011;40178;53.042;6.406;2023-02-25T03:02:55;18.17;;;2.28;;
54263;SDS011;40178;53.042;6.406;2023-02-25T03:05:28;8.30;;;1.77;;
54263;SDS011;40178;53.042;6.406;2023-02-25T03:08:04;11.40;;;1.70;;
54263;SDS011;40178;53.042;6.406;2023-02-25T03:10:33;10.95;;;2.13;;
54263;SDS011;40178;53.042;6.406;2023-02-25T03:12:59;12.30;;;2.20;;
54263;SDS011;40178;53.042;6.406;2023-02-25T03:15:25;11.23;;;2.13;;
54263;SDS011;40178;53.042;6.406;2023-02-25T03:17:55;13.40;;;2.00;;
54263;SDS011;40178;53.042;6.406;2023-02-25T03:20:25;12.65;;;1.85;;
54263;SDS011;40178;53.042;6.406;2023-02-25T03:22:54;13.23;;;1.80;;
54263;SDS011;40178;53.042;6.406;2023-02-25T03:25:23;19.05;;;2.58;;
54263;SDS011;40178;53.042;6.406;2023-02-25T03:28:02;11.20;;;2.55;;
54263;SDS011;40178;53.042;6.406;2023-02-25T03:30:36;11.52;;;1.77;;
54263;SDS011;40178;53.042;6.406;2023-02-25T03:35:51;11.95;;;2.00;;
54263;SDS011;40178;53.042;6.406;2023-02-25T03:38:21;13.65;;;2.25;;
54263;SDS011;40178;53.042;6.406;2023-02-25T03:40:51;9.25;;;1.60;;
54263;SDS011;40178;53.042;6.406;2023-02-25T03:43:21;9.13;;;1.50;;
54263;SDS011;40178;53.042;6.406;2023-02-25T03:45:49;9.18;;;1.20;;
54263;SDS011;40178;53.042;6.406;2023-02-25T03:48:15;11.30;;;1.25;;
54263;SDS011;40178;53.042;6.406;2023-02-25T03:50:47;7.40;;;1.20;;
54263;SDS011;40178;53.042;6.406;2023-02-25T03:53:17;4.82;;;0.82;;
54263;SDS011;40178;53.042;6.406;2023-02-25T03:55:43;10.27;;;1.42;;
54263;SDS011;40178;53.042;6.406;2023-02-25T03:58:09;8.90;;;1.30;;
54263;SDS011;40178;53.042;6.406;2023-02-25T04:00:35;5.68;;;1.30;;
54263;SDS011;40178;53.042;6.406;2023-02-25T04:03:03;11.70;;;1.30;;
54263;SDS011;40178;53.042;6.406;2023-02-25T04:05:29;8.18;;;1.50;;
54263;SDS011;40178;53.042;6.406;2023-02-25T04:07:55;13.95;;;1.48;;
54263;SDS011;40178;53.042;6.406;2023-02-25T04:10:22;11.52;;;1.30;;
54263;SDS011;40178;53.042;6.406;2023-02-25T04:12:48;8.43;;;1.58;;
54263;SDS011;40178;53.042;6.406;2023-02-25T04:15:15;8.45;;;1.33;;
54263;SDS011;40178;53.042;6.406;2023-02-25T04:17:41;8.98;;;1.40;;
54263;SDS011;40178;53.042;6.406;2023-02-25T04:20:09;7.28;;;1.77;;
54263;SDS011;40178;53.042;6.406;2023-02-25T04:22:39;11.25;;;2.00;;
54263;SDS011;40178;53.042;6.406;2023-02-25T04:25:05;7.45;;;1.15;;
54263;SDS011;40178;53.042;6.406;2023-02-25T04:27:31;9.52;;;1.52;;
54263;SDS011;40178;53.042;6.406;2023-02-25T04:29:57;9.23;;;1.45;;
54263;SDS011;40178;53.042;6.406;2023-02-25T04:32:23;4.70;;;0.95;;
54263;SDS011;40178;53.042;6.406;2023-02-25T04:34:49;14.45;;;2.25;;
54263;SDS011;40178;53.042;6.406;2023-02-25T04:37:15;5.50;;;1.15;;
54263;SDS011;40178;53.042;6.406;2023-02-25T04:39:41;5.68;;;0.80;;
54263;SDS011;40178;53.042;6.406;2023-02-25T04:42:07;5.53;;;1.00;;
54263;SDS011;40178;53.042;6.406;2023-02-25T04:44:33;8.20;;;1.38;;
54263;SDS011;40178;53.042;6.406;2023-02-25T04:46:58;3.90;;;0.88;;
54263;SDS011;40178;53.042;6.406;2023-02-25T04:49:24;6.28;;;0.93;;
54263;SDS011;40178;53.042;6.406;2023-02-25T04:51:49;7.95;;;1.25;;
54263;SDS011;40178;53.042;6.406;2023-02-25T04:54:16;5.32;;;0.70;;
54263;SDS011;40178;53.042;6.406;2023-02-25T04:56:43;4.70;;;1.00;;
54263;SDS011;40178;53.042;6.406;2023-02-25T04:59:09;2.85;;;0.50;;
54263;SDS011;40178;53.042;6.406;2023-02-25T05:01:36;7.28;;;0.70;;
54263;SDS011;40178;53.042;6.406;2023-02-25T05:04:03;1.35;;;0.20;;
54263;SDS011;40178;53.042;6.406;2023-02-25T05:06:29;4.50;;;0.47;;
54263;SDS011;40178;53.042;6.406;2023-02-25T05:08:55;5.70;;;0.68;;
54263;SDS011;40178;53.042;6.406;2023-02-25T05:11:21;4.18;;;0.40;;
54263;SDS011;40178;53.042;6.406;2023-02-25T05:13:48;5.32;;;0.68;;
54263;SDS011;40178;53.042;6.406;2023-02-25T05:16:15;4.93;;;0.40;;
54263;SDS011;40178;53.042;6.406;2023-02-25T05:18:42;3.63;;;0.40;;
54263;SDS011;40178;53.042;6.406;2023-02-25T05:21:09;2.20;;;0.40;;
54263;SDS011;40178;53.042;6.406;2023-02-25T05:23:38;6.10;;;0.60;;
54263;SDS011;40178;53.042;6.406;2023-02-25T05:26:05;3.33;;;0.32;;
54263;SDS011;40178;53.042;6.406;2023-02-25T05:28:31;2.97;;;0.50;;
54263;SDS011;40178;53.042;6.406;2023-02-25T05:30:57;6.65;;;0.47;;
54263;SDS011;40178;53.042;6.406;2023-02-25T05:33:23;4.03;;;0.35;;
54263;SDS011;40178;53.042;6.406;2023-02-25T05:35:49;2.67;;;0.63;;
54263;SDS011;40178;53.042;6.406;2023-02-25T05:38:15;4.13;;;0.35;;
54263;SDS011;40178;53.042;6.406;2023-02-25T05:40:41;3.67;;;0.50;;
54263;SDS011;40178;53.042;6.406;2023-02-25T05:43:06;6.60;;;0.40;;
54263;SDS011;40178;53.042;6.406;2023-02-25T05:45:33;4.38;;;0.35;;
54263;SDS011;40178;53.042;6.406;2023-02-25T05:47:58;2.08;;;0.20;;
54263;SDS011;40178;53.042;6.406;2023-02-25T05:50:24;5.35;;;0.40;;
54263;SDS011;40178;53.042;6.406;2023-02-25T05:52:50;2.28;;;0.30;;
54263;SDS011;40178;53.042;6.406;2023-02-25T05:55:16;3.83;;;0.52;;
54263;SDS011;40178;53.042;6.406;2023-02-25T05:57:41;2.50;;;0.28;;
54263;SDS011;40178;53.042;6.406;2023-02-25T06:00:08;3.63;;;0.30;;
54263;SDS011;40178;53.042;6.406;2023-02-25T06:02:38;6.05;;;0.75;;
54263;SDS011;40178;53.042;6.406;2023-02-25T06:05:05;5.05;;;0.47;;
54263;SDS011;40178;53.042;6.406;2023-02-25T06:07:31;5.88;;;0.47;;
54263;SDS011;40178;53.042;6.406;2023-02-25T06:09:58;4.65;;;0.32;;
54263;SDS011;40178;53.042;6.406;2023-02-25T06:12:25;2.40;;;0.40;;
54263;SDS011;40178;53.042;6.406;2023-02-25T06:14:53;4.07;;;0.38;;
54263;SDS011;40178;53.042;6.406;2023-02-25T06:17:18;1.83;;;0.40;;
54263;SDS011;40178;53.042;6.406;2023-02-25T06:19:44;4.97;;;0.88;;
54263;SDS011;40178;53.042;6.406;2023-02-25T06:22:09;3.65;;;0.43;;
54263;SDS011;40178;53.042;6.406;2023-02-25T06:24:35;2.55;;;0.30;;
54263;SDS011;40178;53.042;6.406;2023-02-25T06:27:01;2.28;;;0.40;;
54263;SDS011;40178;53.042;6.406;2023-02-25T06:29:27;4.22;;;0.57;;
54263;SDS011;40178;53.042;6.406;2023-02-25T06:31:52;5.28;;;0.45;;
54263;SDS011;40178;53.042;6.406;2023-02-25T06:34:18;4.47;;;0.45;;
54263;SDS011;40178;53.042;6.406;2023-02-25T06:36:44;2.25;;;0.50;;
54263;SDS011;40178;53.042;6.406;2023-02-25T06:39:10;4.60;;;0.40;;
54263;SDS011;40178;53.042;6.406;2023-02-25T06:41:36;5.47;;;0.40;;
54263;SDS011;40178;53.042;6.406;2023-02-25T06:44:02;3.83;;;0.80;;
54263;SDS011;40178;53.042;6.406;2023-02-25T06:46:28;2.95;;;0.50;;
54263;SDS011;40178;53.042;6.406;2023-02-25T06:48:54;3.72;;;0.30;;
54263;SDS011;40178;53.042;6.406;2023-02-25T06:51:20;3.40;;;0.50;;
54263;SDS011;40178;53.042;6.406;2023-02-25T06:53:46;1.08;;;0.20;;
54263;SDS011;40178;53.042;6.406;2023-02-25T06:56:12;1.77;;;0.25;;
54263;SDS011;40178;53.042;6.406;2023-02-25T06:58:39;2.17;;;0.30;;
54263;SDS011;40178;53.042;6.406;2023-02-25T07:01:05;3.80;;;0.47;;
54263;SDS011;40178;53.042;6.406;2023-02-25T07:03:32;2.08;;;0.10;;
54263;SDS011;40178;53.042;6.406;2023-02-25T07:05:58;2.15;;;0.15;;
54263;SDS011;40178;53.042;6.406;2023-02-25T07:08:23;5.05;;;0.35;;
54263;SDS011;40178;53.042;6.406;2023-02-25T07:10:49;2.55;;;0.40;;
54263;SDS011;40178;53.042;6.406;2023-02-25T07:13:15;3.78;;;0.52;;
54263;SDS011;40178;53.042;6.406;2023-02-25T07:15:40;3.10;;;0.35;;
54263;SDS011;40178;53.042;6.406;2023-02-25T07:18:06;2.10;;;0.52;;
54263;SDS011;40178;53.042;6.406;2023-02-25T07:20:31;1.17;;;0.20;;
54263;SDS011;40178;53.042;6.406;2023-02-25T07:22:57;2.97;;;0.40;;
54263;SDS011;40178;53.042;6.406;2023-02-25T07:25:26;2.35;;;0.40;;
54263;SDS011;40178;53.042;6.406;2023-02-25T07:27:51;3.30;;;0.40;;
54263;SDS011;40178;53.042;6.406;2023-02-25T07:30:18;2.47;;;0.30;;
54263;SDS011;40178;53.042;6.406;2023-02-25T07:32:44;3.88;;;0.40;;
54263;SDS011;40178;53.042;6.406;2023-02-25T07:35:10;6.05;;;0.73;;
54263;SDS011;40178;53.042;6.406;2023-02-25T07:37:35;1.67;;;0.28;;
54263;SDS011;40178;53.042;6.406;2023-02-25T07:40:02;3.95;;;0.65;;
54263;SDS011;40178;53.042;6.406;2023-02-25T07:42:29;6.72;;;0.60;;
54263;SDS011;40178;53.042;6.406;2023-02-25T07:44:54;5.30;;;0.40;;
54263;SDS011;40178;53.042;6.406;2023-02-25T07:47:20;3.15;;;0.38;;
54263;SDS011;40178;53.042;6.406;2023-02-25T07:49:46;3.33;;;0.40;;
54263;SDS011;40178;53.042;6.406;2023-02-25T07:52:12;4.93;;;0.70;;
54263;SDS011;40178;53.042;6.406;2023-02-25T07:54:38;3.78;;;0.30;;
54263;SDS011;40178;53.042;6.406;2023-02-25T07:57:03;4.78;;;0.80;;
54263;SDS011;40178;53.042;6.406;2023-02-25T07:59:32;5.72;;;0.57;;
54263;SDS011;40178;53.042;6.406;2023-02-25T08:01:58;4.60;;;0.80;;
54263;SDS011;40178;53.042;6.406;2023-02-25T08:04:23;6.22;;;0.85;;
54263;SDS011;40178;53.042;6.406;2023-02-25T08:06:49;4.43;;;0.65;;
54263;SDS011;40178;53.042;6.406;2023-02-25T08:09:15;9.48;;;0.90;;
54263;SDS011;40178;53.042;6.406;2023-02-25T08:11:41;6.35;;;1.27;;
54263;SDS011;40178;53.042;6.406;2023-02-25T08:14:08;14.80;;;1.75;;
54263;SDS011;40178;53.042;6.406;2023-02-25T08:16:34;5.03;;;0.85;;
54263;SDS011;40178;53.042;6.406;2023-02-25T08:19:00;7.45;;;1.20;;
54263;SDS011;40178;53.042;6.406;2023-02-25T08:21:26;7.03;;;0.82;;
54263;SDS011;40178;53.042;6.406;2023-02-25T08:23:52;11.00;;;1.20;;
54263;SDS011;40178;53.042;6.406;2023-02-25T08:26:18;8.48;;;1.55;;
54263;SDS011;40178;53.042;6.406;2023-02-25T08:28:46;8.77;;;1.05;;
54263;SDS011;40178;53.042;6.406;2023-02-25T08:31:12;7.15;;;0.88;;
54263;SDS011;40178;53.042;6.406;2023-02-25T08:33:39;5.93;;;0.88;;
54263;SDS011;40178;53.042;6.406;2023-02-25T08:36:26;11.77;;;1.25;;
54263;SDS011;40178;53.042;6.406;2023-02-25T08:38:55;9.40;;;1.88;;
54263;SDS011;40178;53.042;6.406;2023-02-25T08:41:21;6.70;;;1.25;;
54263;SDS011;40178;53.042;6.406;2023-02-25T08:43:48;7.47;;;0.85;;
54263;SDS011;40178;53.042;6.406;2023-02-25T08:46:22;8.57;;;1.10;;
54263;SDS011;40178;53.042;6.406;2023-02-25T08:48:49;8.95;;;1.08;;
54263;SDS011;40178;53.042;6.406;2023-02-25T08:51:16;6.60;;;1.10;;
54263;SDS011;40178;53.042;6.406;2023-02-25T08:53:43;6.05;;;0.90;;
54263;SDS011;40178;53.042;6.406;2023-02-25T08:56:10;5.43;;;0.70;;
54263;SDS011;40178;53.042;6.406;2023-02-25T08:58:37;7.72;;;0.93;;
54263;SDS011;40178;53.042;6.406;2023-02-25T09:01:11;6.10;;;1.05;;
54263;SDS011;40178;53.042;6.406;2023-02-25T09:03:42;6.13;;;1.08;;
54263;SDS011;40178;53.042;6.406;2023-02-25T09:06:18;5.68;;;0.98;;
54263;SDS011;40178;53.042;6.406;2023-02-25T09:08:47;6.85;;;1.25;;
54263;SDS011;40178;53.042;6.406;2023-02-25T09:11:13;8.30;;;1.33;;
54263;SDS011;40178;53.042;6.406;2023-02-25T09:13:40;9.88;;;1.13;;
54263;SDS011;40178;53.042;6.406;2023-02-25T09:16:06;6.45;;;0.85;;
54263;SDS011;40178;53.042;6.406;2023-02-25T09:18:32;7.07;;;1.02;;
54263;SDS011;40178;53.042;6.406;2023-02-25T09:20:57;5.40;;;0.93;;
54263;SDS011;40178;53.042;6.406;2023-02-25T09:23:23;6.82;;;1.80;;
54263;SDS011;40178;53.042;6.406;2023-02-25T09:25:48;5.13;;;1.00;;
54263;SDS011;40178;53.042;6.406;2023-02-25T09:28:14;7.93;;;0.98;;
54263;SDS011;40178;53.042;6.406;2023-02-25T09:30:40;9.25;;;0.93;;
54263;SDS011;40178;53.042;6.406;2023-02-25T09:33:09;5.95;;;1.02;;
54263;SDS011;40178;53.042;6.406;2023-02-25T09:35:35;5.80;;;0.85;;
54263;SDS011;40178;53.042;6.406;2023-02-25T09:38:00;6.20;;;0.80;;
54263;SDS011;40178;53.042;6.406;2023-02-25T09:40:26;9.00;;;1.13;;
54263;SDS011;40178;53.042;6.406;2023-02-25T09:45:30;6.75;;;1.00;;
54263;SDS011;40178;53.042;6.406;2023-02-25T09:48:12;6.18;;;1.38;;
54263;SDS011;40178;53.042;6.406;2023-02-25T09:50:50;6.43;;;0.90;;
54263;SDS011;40178;53.042;6.406;2023-02-25T09:53:21;3.10;;;0.80;;
54263;SDS011;40178;53.042;6.406;2023-02-25T09:55:52;7.30;;;1.45;;
54263;SDS011;40178;53.042;6.406;2023-02-25T10:01:05;7.20;;;1.10;;
54263;SDS011;40178;53.042;6.406;2023-02-25T10:03:46;6.80;;;1.27;;
54263;SDS011;40178;53.042;6.406;2023-02-25T10:06:39;10.90;;;1.38;;
54263;SDS011;40178;53.042;6.406;2023-02-25T10:12:31;13.27;;;1.63;;
54263;SDS011;40178;53.042;6.406;2023-02-25T10:20:51;5.38;;;0.60;;
54263;SDS011;40178;53.042;6.406;2023-02-25T10:26:38;4.70;;;0.70;;
54263;SDS011;40178;53.042;6.406;2023-02-25T10:29:13;3.35;;;0.60;;
54263;SDS011;40178;53.042;6.406;2023-02-25T10:31:54;4.22;;;1.15;;
54263;SDS011;40178;53.042;6.406;2023-02-25T10:34:24;8.60;;;1.70;;
54263;SDS011;40178;53.042;6.406;2023-02-25T10:36:53;6.65;;;0.88;;
54263;SDS011;40178;53.042;6.406;2023-02-25T10:39:20;6.20;;;0.82;;
54263;SDS011;40178;53.042;6.406;2023-02-25T10:41:46;5.95;;;0.98;;
54263;SDS011;40178;53.042;6.406;2023-02-25T10:44:13;6.70;;;0.80;;
54263;SDS011;40178;53.042;6.406;2023-02-25T10:46:57;4.80;;;0.70;;
54263;SDS011;40178;53.042;6.406;2023-02-25T10:49:28;6.88;;;0.60;;
54263;SDS011;40178;53.042;6.406;2023-02-25T10:52:01;4.72;;;0.55;;
54263;SDS011;40178;53.042;6.406;2023-02-25T10:54:28;3.40;;;0.40;;
54263;SDS011;40178;53.042;6.406;2023-02-25T10:56:59;4.93;;;0.70;;
54263;SDS011;40178;53.042;6.406;2023-02-25T10:59:38;6.88;;;1.42;;
54263;SDS011;40178;53.042;6.406;2023-02-25T11:07:30;6.60;;;0.80;;
54263;SDS011;40178;53.042;6.406;2023-02-25T11:10:15;4.30;;;0.85;;
54263;SDS011;40178;53.042;6.406;2023-02-25T11:12:44;6.80;;;0.77;;
54263;SDS011;40178;53.042;6.406;2023-02-25T11:18:14;9.05;;;0.80;;
54263;SDS011;40178;53.042;6.406;2023-02-25T11:20:46;5.63;;;0.70;;
54263;SDS011;40178;53.042;6.406;2023-02-25T11:23:19;4.25;;;0.80;;
54263;SDS011;40178;53.042;6.406;2023-02-25T11:25:56;2.65;;;0.63;;
54263;SDS011;40178;53.042;6.406;2023-02-25T11:28:29;5.07;;;0.55;;
54263;SDS011;40178;53.042;6.406;2023-02-25T11:31:09;2.63;;;0.75;;
54263;SDS011;40178;53.042;6.406;2023-02-25T11:33:39;4.05;;;0.50;;
54263;SDS011;40178;53.042;6.406;2023-02-25T11:36:08;6.78;;;0.60;;
54263;SDS011;40178;53.042;6.406;2023-02-25T11:38:36;3.00;;;0.30;;
54263;SDS011;40178;53.042;6.406;2023-02-25T11:41:03;3.42;;;0.30;;
54263;SDS011;40178;53.042;6.406;2023-02-25T11:43:45;3.63;;;0.60;;
54263;SDS011;40178;53.042;6.406;2023-02-25T11:46:15;4.32;;;0.43;;
54263;SDS011;40178;53.042;6.406;2023-02-25T11:56:56;2.47;;;0.65;;
54263;SDS011;40178;53.042;6.406;2023-02-25T12:00:02;4.70;;;0.80;;
54263;SDS011;40178;53.042;6.406;2023-02-25T12:02:48;3.97;;;0.65;;
54263;SDS011;40178;53.042;6.406;2023-02-25T12:05:42;5.97;;;0.73;;
54263;SDS011;40178;53.042;6.406;2023-02-25T12:08:40;4.32;;;0.88;;
54263;SDS011;40178;53.042;6.406;2023-02-25T12:14:00;5.72;;;0.70;;
54263;SDS011;40178;53.042;6.406;2023-02-25T12:16:56;3.42;;;0.50;;
54263;SDS011;40178;53.042;6.406;2023-02-25T12:20:15;4.82;;;0.57;;
54263;SDS011;40178;53.042;6.406;2023-02-25T12:22:39;3.17;;;0.65;;
54263;SDS011;40178;53.042;6.406;2023-02-25T12:28:20;3.28;;;0.30;;
54263;SDS011;40178;53.042;6.406;2023-02-25T12:41:19;4.18;;;0.95;;
54263;SDS011;40178;53.042;6.406;2023-02-25T12:46:37;3.90;;;0.50;;
54263;SDS011;40178;53.042;6.406;2023-02-25T12:57:55;3.05;;;0.60;;
54263;SDS011;40178;53.042;6.406;2023-02-25T13:03:33;6.97;;;0.60;;
54263;SDS011;40178;53.042;6.406;2023-02-25T13:11:10;6.15;;;0.70;;
54263;SDS011;40178;53.042;6.406;2023-02-25T13:13:54;4.43;;;0.70;;
54263;SDS011;40178;53.042;6.406;2023-02-25T13:25:13;5.68;;;0.68;;
54263;SDS011;40178;53.042;6.406;2023-02-25T13:33:06;6.43;;;1.05;;
54263;SDS011;40178;53.042;6.406;2023-02-25T13:35:46;12.25;;;1.15;;
54263;SDS011;40178;53.042;6.406;2023-02-25T13:38:22;5.35;;;0.88;;
54263;SDS011;40178;53.042;6.406;2023-02-25T13:41:03;6.90;;;1.05;;
54263;SDS011;40178;53.042;6.406;2023-02-25T13:44:26;4.20;;;0.60;;
54263;SDS011;40178;53.042;6.406;2023-02-25T13:47:26;4.68;;;0.88;;
54263;SDS011;40178;53.042;6.406;2023-02-25T14:01:06;3.78;;;0.77;;
54263;SDS011;40178;53.042;6.406;2023-02-25T14:03:47;3.78;;;0.50;;
54263;SDS011;40178;53.042;6.406;2023-02-25T14:06:46;7.93;;;0.95;;
54263;SDS011;40178;53.042;6.406;2023-02-25T14:26:08;7.50;;;0.70;;
54263;SDS011;40178;53.042;6.406;2023-02-25T14:31:53;4.25;;;1.00;;
54263;SDS011;40178;53.042;6.406;2023-02-25T14:40:48;8.27;;;1.00;;
54263;SDS011;40178;53.042;6.406;2023-02-25T14:43:34;6.07;;;0.82;;
54263;SDS011;40178;53.042;6.406;2023-02-25T14:46:03;8.25;;;0.75;;
54263;SDS011;40178;53.042;6.406;2023-02-25T14:54:07;3.17;;;0.50;;
54263;SDS011;40178;53.042;6.406;2023-02-25T15:00:02;4.70;;;0.50;;
54263;SDS011;40178;53.042;6.406;2023-02-25T15:05:36;1.27;;;0.30;;
54263;SDS011;40178;53.042;6.406;2023-02-25T15:11:11;6.30;;;0.80;;
54263;SDS011;40178;53.042;6.406;2023-02-25T15:13:52;6.72;;;0.43;;
54263;SDS011;40178;53.042;6.406;2023-02-25T15:21:47;3.92;;;0.90;;
54263;SDS011;40178;53.042;6.406;2023-02-25T15:26:51;4.10;;;0.50;;
54263;SDS011;40178;53.042;6.406;2023-02-25T15:29:19;2.00;;;0.40;;
54263;SDS011;40178;53.042;6.406;2023-02-25T15:32:07;3.13;;;0.43;;
54263;SDS011;40178;53.042;6.406;2023-02-25T15:34:35;6.32;;;0.60;;
54263;SDS011;40178;53.042;6.406;2023-02-25T15:37:19;4.78;;;0.65;;
54263;SDS011;40178;53.042;6.406;2023-02-25T16:01:00;3.80;;;0.65;;
54263;SDS011;40178;53.042;6.406;2023-02-25T16:08:49;4.05;;;0.50;;
54263;SDS011;40178;53.042;6.406;2023-02-25T16:13:50;8.05;;;0.60;;
54263;SDS011;40178;53.042;6.406;2023-02-25T16:16:16;5.10;;;0.45;;
54263;SDS011;40178;53.042;6.406;2023-02-25T16:18:47;4.22;;;0.52;;
54263;SDS011;40178;53.042;6.406;2023-02-25T16:21:20;4.80;;;0.55;;
54263;SDS011;40178;53.042;6.406;2023-02-25T16:24:01;4.70;;;0.55;;
54263;SDS011;40178;53.042;6.406;2023-02-25T16:35:00;4.25;;;0.40;;
54263;SDS011;40178;53.042;6.406;2023-02-25T16:37:56;4.47;;;0.82;;
54263;SDS011;40178;53.042;6.406;2023-02-25T16:40:42;3.88;;;0.70;;
54263;SDS011;40178;53.042;6.406;2023-02-25T16:43:13;6.53;;;0.93;;
54263;SDS011;40178;53.042;6.406;2023-02-25T16:46:05;5.18;;;0.82;;
54263;SDS011;40178;53.042;6.406;2023-02-25T16:48:31;3.97;;;1.08;;
54263;SDS011;40178;53.042;6.406;2023-02-25T16:51:23;5.78;;;0.93;;
54263;SDS011;40178;53.042;6.406;2023-02-25T16:54:38;5.30;;;0.70;;
54263;SDS011;40178;53.042;6.406;2023-02-25T16:56:50;3.80;;;0.60;;
54263;SDS011;40178;53.042;6.406;2023-02-25T16:59:20;4.53;;;0.73;;
54263;SDS011;40178;53.042;6.406;2023-02-25T17:04:29;4.18;;;0.50;;
54263;SDS011;40178;53.042;6.406;2023-02-25T17:07:06;7.13;;;0.85;;
54263;SDS011;40178;53.042;6.406;2023-02-25T17:09:41;4.38;;;0.52;;
54263;SDS011;40178;53.042;6.406;2023-02-25T17:12:09;3.25;;;0.70;;
54263;SDS011;40178;53.042;6.406;2023-02-25T17:14:46;4.80;;;0.70;;
54263;SDS011;40178;53.042;6.406;2023-02-25T17:17:21;7.22;;;0.70;;
54263;SDS011;40178;53.042;6.406;2023-02-25T17:19:50;5.53;;;0.55;;
54263;SDS011;40178;53.042;6.406;2023-02-25T17:22:20;7.40;;;1.05;;
54263;SDS011;40178;53.042;6.406;2023-02-25T17:24:47;2.20;;;0.50;;
54263;SDS011;40178;53.042;6.406;2023-02-25T17:27:16;6.55;;;0.65;;
54263;SDS011;40178;53.042;6.406;2023-02-25T17:29:42;4.63;;;0.50;;
54263;SDS011;40178;53.042;6.406;2023-02-25T17:34:43;6.55;;;0.70;;
54263;SDS011;40178;53.042;6.406;2023-02-25T17:37:09;1.67;;;0.43;;
54263;SDS011;40178;53.042;6.406;2023-02-25T17:39:37;6.30;;;0.85;;
54263;SDS011;40178;53.042;6.406;2023-02-25T17:45:38;5.03;;;0.80;;
54263;SDS011;40178;53.042;6.406;2023-02-25T17:48:18;5.78;;;0.93;;
54263;SDS011;40178;53.042;6.406;2023-02-25T17:50:53;6.22;;;1.23;;
54263;SDS011;40178;53.042;6.406;2023-02-25T17:53:44;4.53;;;0.80;;
54263;SDS011;40178;53.042;6.406;2023-02-25T17:56:16;5.38;;;0.52;;
54263;SDS011;40178;53.042;6.406;2023-02-25T17:58:54;4.03;;;0.57;;
54263;SDS011;40178;53.042;6.406;2023-02-25T18:01:29;5.55;;;0.60;;
54263;SDS011;40178;53.042;6.406;2023-02-25T18:04:16;4.32;;;0.70;;
54263;SDS011;40178;53.042;6.406;2023-02-25T18:06:50;3.80;;;0.52;;
54263;SDS011;40178;53.042;6.406;2023-02-25T18:11:59;8.25;;;0.80;;
54263;SDS011;40178;53.042;6.406;2023-02-25T18:14:31;10.15;;;0.82;;
54263;SDS011;40178;53.042;6.406;2023-02-25T18:19:48;5.45;;;0.60;;
54263;SDS011;40178;53.042;6.406;2023-02-25T18:25:02;4.50;;;0.80;;
54263;SDS011;40178;53.042;6.406;2023-02-25T18:27:52;2.78;;;0.50;;
54263;SDS011;40178;53.042;6.406;2023-02-25T18:30:19;7.53;;;0.50;;
54263;SDS011;40178;53.042;6.406;2023-02-25T18:32:46;8.80;;;0.75;;
54263;SDS011;40178;53.042;6.406;2023-02-25T18:35:12;9.07;;;0.95;;
54263;SDS011;40178;53.042;6.406;2023-02-25T18:37:39;2.45;;;0.40;;
54263;SDS011;40178;53.042;6.406;2023-02-25T18:40:05;3.33;;;0.63;;
54263;SDS011;40178;53.042;6.406;2023-02-25T18:42:31;3.92;;;0.57;;
54263;SDS011;40178;53.042;6.406;2023-02-25T18:44:57;2.47;;;0.50;;
54263;SDS011;40178;53.042;6.406;2023-02-25T18:47:23;3.13;;;0.45;;